createdAt,value
2017-05-23T00:01:47.014Z,74.30
2017-05-23T00:04:15.331Z,72.30
2017-05-23T00:06:43.655Z,72.20
2017-05-23T00:09:11.996Z,72.00
2017-05-23T00:11:40.306Z,71.90
2017-05-23T00:14:08.635Z,72.50
2017-05-23T00:16:36.942Z,72.70
2017-05-23T00:19:05.282Z,74.00
2017-05-23T00:21:33.592Z,72.80
2017-05-23T00:24:01.927Z,73.80
2017-05-23T00:26:31.817Z,73.10
2017-05-23T00:29:00.218Z,73.90
2017-05-23T00:31:28.560Z,76.10
2017-05-23T00:33:56.874Z,76.10
2017-05-23T00:36:25.270Z,77.70
2017-05-23T00:38:53.575Z,77.50
2017-05-23T00:41:21.886Z,77.50
2017-05-23T00:43:50.191Z,77.50
2017-05-23T00:46:18.507Z,77.00
2017-05-23T00:48:46.859Z,77.20
2017-05-23T00:51:15.179Z,76.20
2017-05-23T00:53:43.699Z,75.60
2017-05-23T00:56:12.099Z,76.00
2017-05-23T00:58:40.479Z,75.00
2017-05-23T01:01:08.858Z,74.10
2017-05-23T01:03:37.240Z,74.50
2017-05-23T01:06:05.559Z,73.20
2017-05-23T01:08:33.875Z,72.90
2017-05-23T01:11:02.179Z,73.30
2017-05-23T01:13:30.486Z,72.90
2017-05-23T01:15:58.803Z,73.10
2017-05-23T01:18:27.111Z,72.90
2017-05-23T01:20:55.440Z,73.00
2017-05-23T01:23:23.763Z,73.30
2017-05-23T01:25:52.146Z,73.50
2017-05-23T01:28:20.454Z,73.80
2017-05-23T01:30:55.247Z,73.10
2017-05-23T01:33:23.924Z,73.20
2017-05-23T01:35:52.226Z,73.00
2017-05-23T01:38:20.601Z,73.10
2017-05-23T01:40:48.906Z,72.70
2017-05-23T01:43:17.228Z,72.50
2017-05-23T01:45:45.531Z,72.40
2017-05-23T01:48:13.835Z,72.00
2017-05-23T01:50:42.146Z,72.80
2017-05-23T01:53:10.464Z,72.20
2017-05-23T01:55:38.859Z,71.60
2017-05-23T01:58:07.232Z,72.40
2017-05-23T02:00:35.610Z,71.80
2017-05-23T02:03:03.923Z,71.80
2017-05-23T02:05:32.243Z,71.20
2017-05-23T02:08:00.555Z,71.50
2017-05-23T02:10:28.920Z,72.10
2017-05-23T02:12:57.299Z,71.10
2017-05-23T02:15:25.675Z,71.40
2017-05-23T02:17:53.994Z,71.30
2017-05-23T02:20:22.304Z,71.50
2017-05-23T02:22:50.615Z,71.00
2017-05-23T02:25:18.999Z,71.20
2017-05-23T02:27:47.380Z,71.40
2017-05-23T02:30:15.695Z,71.80
2017-05-23T02:32:44.032Z,71.20
2017-05-23T02:35:12.342Z,72.60
2017-05-23T02:37:40.655Z,71.60
2017-05-23T02:40:08.970Z,71.90
2017-05-23T02:42:37.346Z,71.60
2017-05-23T02:45:05.656Z,71.90
2017-05-23T02:47:34.011Z,72.30
2017-05-23T02:50:02.314Z,72.40
2017-05-23T02:52:30.655Z,71.90
2017-05-23T02:54:58.969Z,71.80
2017-05-23T02:57:27.323Z,72.00
2017-05-23T02:59:55.698Z,72.70
2017-05-23T03:02:24.002Z,72.30
2017-05-23T03:04:52.362Z,72.50
2017-05-23T03:07:20.743Z,73.00
2017-05-23T03:09:49.052Z,72.70
2017-05-23T03:12:17.367Z,73.80
2017-05-23T03:14:59.531Z,74.20
2017-05-23T03:17:28.898Z,73.50
2017-05-23T03:19:57.279Z,74.00
2017-05-23T03:22:25.592Z,74.50
2017-05-23T03:24:53.943Z,73.50
2017-05-23T03:27:22.319Z,73.50
2017-05-23T03:29:50.622Z,74.10
2017-05-23T03:32:18.975Z,72.90
2017-05-23T03:34:47.283Z,73.20
2017-05-23T03:37:15.610Z,73.10
2017-05-23T03:39:43.918Z,73.00
2017-05-23T03:42:12.267Z,73.30
2017-05-23T03:44:41.446Z,72.60
2017-05-23T03:47:09.859Z,72.10
2017-05-23T03:49:38.246Z,72.50
2017-05-23T03:52:06.559Z,72.30
2017-05-23T03:54:34.872Z,72.50
2017-05-23T03:57:03.326Z,72.00
2017-05-23T03:59:31.655Z,71.90
2017-05-23T04:02:00.045Z,71.70
2017-05-23T04:04:28.440Z,72.50
2017-05-23T04:06:56.754Z,71.80
2017-05-23T04:09:25.199Z,71.60
2017-05-23T04:11:53.567Z,71.50
2017-05-23T04:14:21.955Z,71.80
2017-05-23T04:16:50.267Z,71.70
2017-05-23T04:19:18.615Z,71.80
2017-05-23T04:21:46.925Z,71.90
2017-05-23T04:24:15.249Z,72.00
2017-05-23T04:26:43.582Z,72.30
2017-05-23T04:29:11.890Z,71.00
2017-05-23T04:31:40.298Z,72.40
2017-05-23T04:34:08.607Z,71.90
2017-05-23T04:36:37.061Z,73.40
2017-05-23T04:39:05.530Z,71.80
2017-05-23T04:41:33.926Z,71.60
2017-05-23T04:44:02.253Z,71.70
2017-05-23T04:46:31.213Z,71.60
2017-05-23T04:48:59.857Z,71.50
2017-05-23T04:51:28.925Z,71.50
2017-05-23T04:53:57.257Z,71.90
2017-05-23T04:56:25.562Z,72.40
2017-05-23T04:58:53.924Z,71.90
2017-05-23T05:01:22.302Z,72.40
2017-05-23T05:03:50.634Z,72.00
2017-05-23T05:06:18.944Z,71.80
2017-05-23T05:08:47.339Z,72.00
2017-05-23T05:11:15.651Z,72.10
2017-05-23T05:13:43.964Z,72.00
2017-05-23T05:16:12.305Z,72.50
2017-05-23T05:18:40.607Z,71.20
2017-05-23T05:21:09.039Z,71.90
2017-05-23T05:23:37.351Z,70.60
2017-05-23T05:26:05.655Z,70.70
2017-05-23T05:28:33.967Z,70.50
2017-05-23T05:31:02.350Z,70.20
2017-05-23T05:33:30.722Z,68.40
2017-05-23T05:35:59.056Z,68.20
2017-05-23T05:38:27.788Z,67.40
2017-05-23T05:40:56.098Z,67.00
2017-05-23T05:43:24.820Z,67.20
2017-05-23T05:45:53.122Z,66.50
2017-05-23T05:48:21.438Z,64.40
2017-05-23T05:50:49.748Z,64.40
2017-05-23T05:53:18.066Z,60.20
2017-05-23T05:55:46.402Z,60.40
2017-05-23T05:58:14.732Z,62.40
2017-05-23T06:00:43.063Z,59.60
2017-05-23T06:03:11.375Z,60.90
2017-05-23T06:05:39.762Z,62.20
2017-05-23T06:08:08.067Z,61.30
2017-05-23T06:10:36.423Z,57.00
2017-05-23T06:13:22.263Z,59.80
2017-05-23T06:15:50.678Z,56.20
2017-05-23T06:18:19.072Z,56.40
2017-05-23T06:20:47.410Z,52.00
2017-05-23T06:23:15.716Z,50.50
2017-05-23T06:25:44.115Z,50.70
2017-05-23T06:28:12.427Z,49.00
2017-05-23T06:30:40.738Z,49.80
2017-05-23T06:33:09.147Z,47.80
2017-05-23T06:35:37.527Z,47.70
2017-05-23T06:38:05.858Z,47.00
2017-05-23T06:40:34.181Z,48.30
2017-05-23T06:43:02.571Z,45.90
2017-05-23T06:45:30.943Z,45.70
2017-05-23T06:47:59.331Z,44.10
2017-05-23T06:50:35.178Z,43.90
2017-05-23T06:53:03.554Z,43.40
2017-05-23T06:55:31.940Z,42.60
2017-05-23T06:58:00.321Z,43.10
2017-05-23T07:00:28.622Z,42.50
2017-05-23T07:02:56.983Z,43.80
2017-05-23T07:05:25.315Z,41.60
2017-05-23T07:07:53.635Z,45.10
2017-05-23T07:10:22.013Z,44.50
2017-05-23T07:12:50.395Z,43.40
2017-05-23T07:15:18.771Z,40.70
2017-05-23T07:17:47.082Z,42.30
2017-05-23T07:20:15.386Z,41.40
2017-05-23T07:22:43.716Z,45.90
2017-05-23T07:25:12.023Z,46.80
2017-05-23T07:27:40.376Z,41.90
2017-05-23T07:30:08.750Z,41.40
2017-05-23T07:32:37.081Z,41.00
2017-05-23T07:35:05.414Z,43.90
2017-05-23T07:37:33.793Z,42.30
2017-05-23T07:40:02.109Z,41.10
2017-05-23T07:42:30.446Z,44.00
2017-05-23T07:44:58.757Z,42.40
2017-05-23T07:47:27.064Z,43.50
2017-05-23T07:49:55.394Z,48.20
2017-05-23T07:52:23.700Z,45.90
2017-05-23T07:54:52.035Z,42.50
2017-05-23T07:57:20.414Z,46.10
2017-05-23T07:59:48.795Z,42.60
2017-05-23T08:02:17.099Z,44.40
2017-05-23T08:04:45.450Z,47.60
2017-05-23T08:07:13.830Z,44.70
2017-05-23T08:09:42.143Z,45.30
2017-05-23T08:12:10.451Z,44.30
2017-05-23T08:14:38.767Z,45.90
2017-05-23T08:17:07.072Z,49.10
2017-05-23T08:19:35.433Z,44.50
2017-05-23T08:22:03.738Z,45.70
2017-05-23T08:24:32.079Z,43.40
2017-05-23T08:27:00.463Z,46.70
2017-05-23T08:29:28.851Z,49.90
2017-05-23T08:31:57.162Z,48.10
2017-05-23T08:34:25.471Z,48.20
2017-05-23T08:36:53.779Z,49.50
2017-05-23T08:39:22.087Z,50.70
2017-05-23T08:41:50.394Z,47.60
2017-05-23T08:44:18.728Z,51.30
2017-05-23T08:46:47.039Z,51.40
2017-05-23T08:49:15.379Z,44.40
2017-05-23T08:51:43.746Z,48.00
2017-05-23T08:54:12.134Z,47.00
2017-05-23T08:56:40.511Z,47.20
2017-05-23T08:59:08.815Z,47.00
2017-05-23T09:01:37.167Z,48.70
2017-05-23T09:04:05.550Z,43.90
2017-05-23T09:06:33.891Z,44.30
2017-05-23T09:09:02.297Z,45.10
2017-05-23T09:11:30.654Z,45.00
2017-05-23T09:13:58.960Z,45.20
2017-05-23T09:16:27.341Z,44.80
2017-05-23T09:18:55.727Z,46.00
2017-05-23T09:21:24.110Z,44.30
2017-05-23T09:23:52.488Z,42.20
2017-05-23T09:26:26.422Z,42.40
2017-05-23T09:28:54.792Z,49.10
2017-05-23T09:31:23.158Z,47.30
2017-05-23T09:33:51.530Z,47.90
2017-05-23T09:36:19.839Z,47.50
2017-05-23T09:38:48.195Z,48.70
2017-05-23T09:41:16.570Z,48.50
2017-05-23T09:43:44.952Z,45.30
2017-05-23T09:46:13.259Z,46.20
2017-05-23T09:48:41.568Z,44.30
2017-05-23T09:51:09.871Z,45.40
2017-05-23T09:53:38.176Z,44.50
2017-05-23T09:56:06.514Z,44.50
2017-05-23T09:58:34.823Z,47.20
2017-05-23T10:01:03.206Z,45.00
2017-05-23T10:03:31.583Z,45.60
2017-05-23T10:05:59.895Z,48.40
2017-05-23T10:08:28.199Z,45.20
2017-05-23T10:10:56.524Z,49.00
2017-05-23T10:13:24.831Z,48.70
2017-05-23T10:15:53.137Z,48.10
2017-05-23T10:18:21.479Z,45.20
2017-05-23T10:20:49.838Z,46.70
2017-05-23T10:23:18.178Z,46.90
2017-05-23T10:25:46.598Z,45.90
2017-05-23T10:28:14.914Z,45.20
2017-05-23T10:30:43.227Z,48.30
2017-05-23T10:33:11.720Z,44.30
2017-05-23T10:35:40.057Z,46.80
2017-05-23T10:38:08.395Z,47.00
2017-05-23T10:40:36.762Z,48.50
2017-05-23T10:43:05.148Z,48.30
2017-05-23T10:45:33.525Z,50.20
2017-05-23T10:48:01.831Z,48.90
2017-05-23T10:50:30.191Z,48.10
2017-05-23T10:52:58.567Z,47.00
2017-05-23T10:55:26.868Z,44.70
2017-05-23T10:57:55.204Z,47.80
2017-05-23T11:00:23.514Z,48.30
2017-05-23T11:02:51.887Z,49.30
2017-05-23T11:05:20.220Z,46.50
2017-05-23T11:07:48.539Z,51.30
2017-05-23T11:10:16.920Z,49.20
2017-05-23T11:12:45.300Z,47.90
2017-05-23T11:15:13.626Z,48.80
2017-05-23T11:17:41.926Z,48.70
2017-05-23T11:20:10.279Z,48.60
2017-05-23T11:22:38.592Z,49.10
2017-05-23T11:25:06.898Z,44.80
2017-05-23T11:27:35.271Z,44.90
2017-05-23T11:30:03.575Z,47.10
2017-05-23T11:32:31.939Z,46.00
2017-05-23T11:35:00.247Z,47.20
2017-05-23T11:37:28.556Z,45.50
2017-05-23T11:39:56.884Z,48.60
2017-05-23T11:42:25.257Z,46.30
2017-05-23T11:44:53.621Z,45.30
2017-05-23T11:47:21.959Z,48.40
2017-05-23T11:49:50.285Z,49.70
2017-05-23T11:52:18.660Z,48.20
2017-05-23T11:54:47.040Z,49.20
2017-05-23T11:57:15.343Z,49.30
2017-05-23T11:59:43.651Z,48.40
2017-05-23T12:02:11.958Z,46.10
2017-05-23T12:04:40.263Z,49.00
2017-05-23T12:07:08.630Z,46.30
2017-05-23T12:09:36.936Z,47.50
2017-05-23T12:12:05.243Z,45.40
2017-05-23T12:14:33.608Z,45.60
2017-05-23T12:17:01.915Z,47.40
2017-05-23T12:19:30.338Z,46.50
2017-05-23T12:21:58.647Z,48.10
2017-05-23T12:24:26.963Z,46.90
2017-05-23T12:26:55.294Z,46.80
2017-05-23T12:29:23.642Z,46.20
2017-05-23T12:31:52.026Z,49.40
2017-05-23T12:34:20.335Z,48.80
2017-05-23T12:36:48.694Z,47.80
2017-05-23T12:39:17.017Z,48.00
2017-05-23T12:41:45.331Z,49.00
2017-05-23T12:44:13.668Z,48.90
2017-05-23T12:46:41.976Z,48.60
2017-05-23T12:49:10.320Z,49.60
2017-05-23T12:51:38.663Z,48.40
2017-05-23T12:54:07.032Z,50.10
2017-05-23T12:56:35.422Z,49.30
2017-05-23T12:59:03.800Z,49.60
2017-05-23T13:01:32.172Z,50.00
2017-05-23T13:04:00.554Z,50.10
2017-05-23T13:06:28.888Z,49.70
2017-05-23T13:08:57.207Z,48.30
2017-05-23T13:11:25.588Z,50.60
2017-05-23T13:13:53.975Z,47.30
2017-05-23T13:16:22.354Z,48.90
2017-05-23T13:18:50.670Z,46.70
2017-05-23T13:21:19.006Z,46.00
2017-05-23T13:23:47.328Z,46.40
2017-05-23T13:26:15.655Z,48.50
2017-05-23T13:28:43.995Z,50.20
2017-05-23T13:31:12.303Z,47.70
2017-05-23T13:33:40.639Z,46.40
2017-05-23T13:36:08.978Z,46.70
2017-05-23T13:38:37.323Z,46.20
2017-05-23T13:41:05.635Z,45.90
2017-05-23T13:43:33.938Z,46.10
2017-05-23T13:46:02.298Z,44.00
2017-05-23T13:48:30.618Z,46.60
2017-05-23T13:50:59.058Z,43.60
2017-05-23T13:53:27.364Z,44.90
2017-05-23T13:55:55.810Z,45.90
2017-05-23T13:58:24.191Z,47.70
2017-05-23T14:00:52.495Z,46.40
2017-05-23T14:03:20.855Z,44.70
2017-05-23T14:05:49.234Z,46.30
2017-05-23T14:08:17.607Z,46.10
2017-05-23T14:10:45.918Z,46.30
2017-05-23T14:13:14.271Z,46.50
2017-05-23T14:15:42.581Z,48.70
2017-05-23T14:18:10.931Z,48.10
2017-05-23T14:20:39.306Z,47.00
2017-05-23T14:23:07.625Z,49.20
2017-05-23T14:25:36.059Z,48.40
2017-05-23T14:28:04.365Z,47.80
2017-05-23T14:30:32.724Z,48.80
2017-05-23T14:33:01.110Z,47.30
2017-05-23T14:35:29.494Z,47.80
2017-05-23T14:37:57.871Z,46.40
2017-05-23T14:40:26.217Z,46.80
2017-05-23T14:42:54.523Z,46.30
2017-05-23T14:45:22.894Z,44.60
2017-05-23T14:47:51.226Z,43.40
2017-05-23T14:50:19.529Z,44.00
2017-05-23T14:52:47.861Z,42.70
2017-05-23T14:55:16.219Z,43.20
2017-05-23T14:57:44.609Z,43.10
2017-05-23T15:00:12.978Z,40.10
2017-05-23T15:02:41.360Z,40.70
2017-05-23T15:05:09.695Z,39.80
2017-05-23T15:07:38.011Z,39.50
2017-05-23T15:10:06.325Z,39.90
2017-05-23T15:12:34.680Z,38.50
2017-05-23T15:15:03.046Z,38.70
2017-05-23T15:17:31.430Z,40.70
2017-05-23T15:19:59.739Z,40.10
2017-05-23T15:22:28.053Z,41.90
2017-05-23T15:24:56.368Z,41.00
2017-05-23T15:27:24.744Z,40.70
2017-05-23T15:29:53.124Z,41.40
2017-05-23T15:32:21.435Z,42.60
2017-05-23T15:34:49.786Z,42.20
2017-05-23T15:37:18.092Z,41.20
2017-05-23T15:39:46.411Z,41.70
2017-05-23T15:42:14.715Z,43.00
2017-05-23T15:44:43.020Z,45.30
2017-05-23T15:47:11.378Z,42.50
2017-05-23T15:49:39.740Z,43.20
2017-05-23T15:52:08.078Z,44.90
2017-05-23T15:54:36.414Z,45.50
2017-05-23T15:57:04.741Z,45.50
2017-05-23T15:59:33.087Z,46.70
2017-05-23T16:02:01.400Z,46.70
2017-05-23T16:04:29.711Z,48.50
2017-05-23T16:06:58.111Z,49.70
2017-05-23T16:09:26.458Z,50.60
2017-05-23T16:11:54.862Z,51.90
2017-05-23T16:14:23.250Z,52.80
2017-05-23T16:16:51.635Z,54.60
2017-05-23T16:19:19.955Z,55.60
2017-05-23T16:21:48.269Z,56.00
2017-05-23T16:24:16.587Z,57.30
2017-05-23T16:26:44.949Z,57.30
2017-05-23T16:29:13.327Z,56.30
2017-05-23T16:31:41.687Z,56.20
2017-05-23T16:34:10.081Z,56.00
2017-05-23T16:36:38.397Z,56.10
2017-05-23T16:39:06.745Z,55.50
2017-05-23T16:41:35.116Z,56.60
2017-05-23T16:44:03.431Z,57.30
2017-05-23T16:46:31.743Z,57.00
2017-05-23T16:49:00.071Z,57.40
2017-05-23T16:51:28.386Z,57.10
2017-05-23T16:53:56.743Z,57.40
2017-05-23T16:56:25.051Z,56.10
2017-05-23T16:58:53.356Z,56.80
2017-05-23T17:01:21.663Z,57.20
2017-05-23T17:03:49.975Z,57.00
2017-05-23T17:06:18.285Z,56.80
2017-05-23T17:08:46.683Z,57.80
2017-05-23T17:11:15.068Z,56.20
2017-05-23T17:13:43.387Z,56.10
2017-05-23T17:16:11.827Z,56.90
2017-05-23T17:18:40.213Z,56.30
2017-05-23T17:21:08.523Z,56.70
2017-05-23T17:23:36.831Z,57.20
2017-05-23T17:26:05.238Z,57.20
2017-05-23T17:28:33.631Z,58.00
2017-05-23T17:31:01.941Z,58.90
2017-05-23T17:33:30.383Z,59.60
2017-05-23T17:35:58.704Z,57.70
2017-05-23T17:38:27.043Z,57.90
2017-05-23T17:40:55.415Z,57.90
2017-05-23T17:43:23.799Z,57.60
2017-05-23T17:45:52.176Z,59.30
2017-05-23T17:48:20.489Z,58.80
2017-05-23T17:50:48.835Z,60.30
2017-05-23T17:53:17.145Z,59.50
2017-05-23T17:55:45.490Z,59.30
2017-05-23T17:58:13.803Z,59.50
2017-05-23T18:00:42.151Z,59.10
2017-05-23T18:03:10.483Z,59.20
2017-05-23T18:05:38.837Z,58.70
2017-05-23T18:08:07.163Z,58.70
2017-05-23T18:10:35.499Z,58.00
2017-05-23T18:13:03.846Z,57.70
2017-05-23T18:15:32.166Z,57.50
2017-05-23T18:18:00.547Z,55.40
2017-05-23T18:20:28.887Z,56.20
2017-05-23T18:22:57.236Z,56.10
2017-05-23T18:25:25.661Z,56.50
2017-05-23T18:27:54.026Z,56.30
2017-05-23T18:30:22.408Z,56.80
2017-05-23T18:32:50.778Z,56.30
2017-05-23T18:35:19.123Z,55.90
2017-05-23T18:37:47.447Z,56.50
2017-05-23T18:40:15.778Z,55.90
2017-05-23T18:42:44.105Z,56.30
2017-05-23T18:45:12.458Z,54.30
2017-05-23T18:47:40.804Z,55.60
2017-05-23T18:50:09.140Z,55.60
2017-05-23T18:52:37.457Z,55.90
2017-05-23T18:55:05.767Z,54.00
2017-05-23T18:57:34.103Z,54.20
2017-05-23T19:00:02.475Z,53.30
2017-05-23T19:02:30.799Z,53.50
2017-05-23T19:04:59.110Z,53.50
2017-05-23T19:07:27.422Z,53.00
2017-05-23T19:09:55.732Z,53.80
2017-05-23T19:12:24.119Z,52.60
2017-05-23T19:14:52.636Z,52.10
2017-05-23T19:17:21.012Z,52.10
2017-05-23T19:19:49.327Z,51.50
2017-05-23T19:22:17.670Z,52.50
2017-05-23T19:24:46.042Z,51.50
2017-05-23T19:27:14.362Z,52.60
2017-05-23T19:29:42.708Z,51.90
2017-05-23T19:32:11.018Z,51.80
2017-05-23T19:34:39.358Z,51.90
2017-05-23T19:37:07.742Z,52.40
2017-05-23T19:39:36.120Z,52.70
2017-05-23T19:42:04.499Z,54.80
2017-05-23T19:44:32.883Z,53.40
2017-05-23T19:47:01.279Z,54.90
2017-05-23T19:49:29.646Z,54.50
2017-05-23T19:51:57.955Z,54.30
2017-05-23T19:54:26.270Z,56.20
2017-05-23T19:56:54.583Z,56.00
2017-05-23T19:59:22.984Z,55.30
2017-05-23T20:01:51.428Z,55.30
2017-05-23T20:04:20.628Z,56.90
2017-05-23T20:06:49.022Z,56.20
2017-05-23T20:09:17.335Z,57.20
2017-05-23T20:11:45.664Z,56.20
2017-05-23T20:14:13.975Z,56.50
2017-05-23T20:16:42.328Z,56.60
2017-05-23T20:19:10.878Z,56.60
2017-05-23T20:21:39.203Z,56.50
2017-05-23T20:24:07.514Z,56.60
2017-05-23T20:26:35.824Z,57.20
2017-05-23T20:29:04.207Z,57.00
2017-05-23T20:31:32.610Z,57.00
2017-05-23T20:34:00.949Z,57.20
2017-05-23T20:36:29.284Z,57.00
2017-05-23T20:38:57.664Z,56.50
2017-05-23T20:41:26.028Z,57.60
2017-05-23T20:43:54.416Z,56.80
2017-05-23T20:46:22.779Z,56.90
2017-05-23T20:48:51.154Z,57.20
2017-05-23T20:51:19.471Z,57.70
2017-05-23T20:53:47.789Z,57.00
2017-05-23T20:56:16.120Z,57.10
2017-05-23T20:58:44.433Z,57.70
2017-05-23T21:01:12.876Z,57.50
2017-05-23T21:03:41.264Z,58.00
2017-05-23T21:06:09.639Z,58.30
2017-05-23T21:08:37.971Z,59.20
2017-05-23T21:11:06.289Z,59.50
2017-05-23T21:13:34.667Z,59.40
2017-05-23T21:16:02.972Z,60.50
2017-05-23T21:18:31.310Z,60.30
2017-05-23T21:20:59.670Z,60.90
2017-05-23T21:23:28.087Z,61.10
2017-05-23T21:25:56.459Z,62.30
2017-05-23T21:28:26.358Z,62.10
2017-05-23T21:30:54.750Z,62.30
2017-05-23T21:33:23.142Z,62.90
2017-05-23T21:35:51.521Z,62.60
2017-05-23T21:38:19.858Z,62.70
2017-05-23T21:40:48.183Z,63.80
2017-05-23T21:43:16.656Z,63.80
2017-05-23T21:45:45.010Z,64.50
2017-05-23T21:48:13.347Z,64.00
2017-05-23T21:50:41.683Z,64.10
2017-05-23T21:53:10.071Z,64.20
2017-05-23T21:55:38.420Z,64.60
2017-05-23T21:58:06.739Z,64.80
2017-05-23T22:00:35.085Z,64.50
2017-05-23T22:03:03.391Z,65.00
2017-05-23T22:05:31.714Z,64.50
2017-05-23T22:08:00.051Z,64.80
2017-05-23T22:10:28.369Z,65.00
2017-05-23T22:12:56.811Z,65.00
2017-05-23T22:15:25.231Z,65.50
2017-05-23T22:17:53.672Z,64.50
2017-05-23T22:20:22.155Z,64.90
2017-05-23T22:22:50.486Z,65.80
2017-05-23T22:25:18.806Z,66.90
2017-05-23T22:27:47.133Z,66.60
2017-05-23T22:30:15.470Z,66.70
2017-05-23T22:32:43.845Z,66.90
2017-05-23T22:35:12.223Z,66.70
2017-05-23T22:37:40.614Z,67.90
2017-05-23T22:40:08.942Z,66.70
2017-05-23T22:42:37.264Z,66.50
2017-05-23T22:45:05.643Z,67.70
2017-05-23T22:47:34.022Z,67.00
2017-05-23T22:50:02.410Z,67.50
2017-05-23T22:52:30.795Z,67.60
2017-05-23T22:54:59.176Z,68.30
2017-05-23T22:57:27.483Z,68.50
2017-05-23T22:59:55.803Z,69.80
2017-05-23T23:02:24.115Z,68.50
2017-05-23T23:04:52.435Z,69.30
2017-05-23T23:07:20.754Z,69.50
2017-05-23T23:09:49.142Z,69.20
2017-05-23T23:12:17.514Z,69.60
2017-05-23T23:14:45.899Z,69.10
2017-05-23T23:17:14.284Z,69.70
2017-05-23T23:19:42.656Z,70.50
2017-05-23T23:22:11.034Z,70.10
2017-05-23T23:24:39.415Z,71.10
2017-05-23T23:27:07.803Z,70.80
2017-05-23T23:29:36.176Z,70.90
2017-05-23T23:32:04.560Z,70.90
2017-05-23T23:34:32.931Z,71.00
2017-05-23T23:37:01.316Z,71.10
2017-05-23T23:39:29.698Z,71.00
2017-05-23T23:41:58.076Z,70.90
2017-05-23T23:44:26.387Z,71.60
2017-05-23T23:46:54.731Z,71.10
2017-05-23T23:49:23.045Z,71.80
2017-05-23T23:51:51.391Z,72.90
2017-05-23T23:54:19.724Z,72.40
2017-05-23T23:56:48.026Z,72.20
2017-05-23T23:59:16.450Z,71.80
